createdAt,value
2018-04-29T00:00:17.574Z,13.27
2018-04-29T00:02:46.007Z,13.30
2018-04-29T00:05:13.505Z,13.47
2018-04-29T00:07:40.981Z,11.87
2018-04-29T00:10:09.337Z,14.20
2018-04-29T00:12:36.778Z,17.40
2018-04-29T00:15:04.268Z,21.97
2018-04-29T00:17:32.550Z,21.37
2018-04-29T00:20:00.784Z,20.23
2018-04-29T00:22:28.288Z,15.57
2018-04-29T00:24:56.541Z,13.50
2018-04-29T00:27:24.812Z,15.83
2018-04-29T00:29:52.314Z,20.67
2018-04-29T00:32:19.806Z,17.90
2018-04-29T00:34:47.309Z,17.63
2018-04-29T00:37:15.599Z,17.63
2018-04-29T00:39:43.085Z,17.77
2018-04-29T00:42:10.590Z,18.23
2018-04-29T00:44:38.114Z,18.73
2018-04-29T00:47:05.663Z,20.63
2018-04-29T00:49:33.160Z,21.70
2018-04-29T00:52:06.674Z,25.53
2018-04-29T00:54:34.163Z,22.80
2018-04-29T00:57:01.686Z,21.33
2018-04-29T00:59:29.932Z,22.40
2018-04-29T01:01:57.433Z,22.30
2018-04-29T01:04:24.934Z,26.87
2018-04-29T01:06:52.489Z,25.67
2018-04-29T01:09:19.975Z,25.47
2018-04-29T01:11:47.459Z,25.03
2018-04-29T01:14:15.727Z,24.60
2018-04-29T01:16:44.137Z,22.87
2018-04-29T01:19:11.678Z,21.77
2018-04-29T01:21:39.947Z,21.13
2018-04-29T01:24:08.211Z,22.23
2018-04-29T01:26:36.240Z,23.83
2018-04-29T01:29:04.566Z,22.73
2018-04-29T01:31:32.061Z,23.20
2018-04-29T01:33:59.590Z,18.60
2018-04-29T01:36:27.839Z,23.80
2018-04-29T01:38:55.321Z,29.00
2018-04-29T01:41:23.580Z,27.43
2018-04-29T01:43:51.083Z,22.90
2018-04-29T01:46:18.556Z,19.13
2018-04-29T01:48:46.047Z,25.53
2018-04-29T01:51:13.509Z,17.57
2018-04-29T01:53:41.012Z,18.80
2018-04-29T01:56:08.495Z,20.00
2018-04-29T01:58:36.005Z,22.33
2018-04-29T02:01:04.244Z,22.47
2018-04-29T02:03:31.771Z,24.03
2018-04-29T02:05:59.242Z,18.37
2018-04-29T02:08:26.740Z,22.17
2018-04-29T02:10:54.250Z,21.97
2018-04-29T02:13:21.732Z,21.70
2018-04-29T02:15:49.235Z,17.03
2018-04-29T02:18:17.480Z,22.77
2018-04-29T02:20:45.007Z,19.27
2018-04-29T02:23:12.483Z,19.77
2018-04-29T02:25:39.982Z,20.77
2018-04-29T02:28:07.481Z,21.03
2018-04-29T02:30:35.009Z,18.80
2018-04-29T02:33:02.505Z,15.83
2018-04-29T02:35:30.009Z,19.97
2018-04-29T02:37:58.249Z,21.30
2018-04-29T02:40:25.755Z,18.53
2018-04-29T02:42:53.983Z,20.80
2018-04-29T02:45:21.492Z,21.23
2018-04-29T02:47:48.968Z,22.40
2018-04-29T02:50:16.464Z,23.10
2018-04-29T02:52:43.983Z,23.03
2018-04-29T02:55:11.493Z,19.33
2018-04-29T02:57:39.005Z,18.23
2018-04-29T03:00:06.495Z,17.90
2018-04-29T03:02:33.993Z,18.23
2018-04-29T03:05:01.467Z,16.57
2018-04-29T03:07:28.961Z,17.37
2018-04-29T03:09:56.490Z,18.87
2018-04-29T03:12:23.992Z,16.13
2018-04-29T03:14:51.478Z,15.40
2018-04-29T03:17:18.970Z,15.93
2018-04-29T03:19:46.455Z,14.83
2018-04-29T03:22:13.996Z,13.27
2018-04-29T03:24:41.466Z,17.53
2018-04-29T03:27:08.954Z,21.43
2018-04-29T03:29:37.221Z,15.43
2018-04-29T03:32:04.721Z,17.07
2018-04-29T03:34:32.226Z,17.77
2018-04-29T03:36:59.715Z,27.10
2018-04-29T03:39:27.985Z,25.47
2018-04-29T03:41:56.242Z,25.83
2018-04-29T03:44:23.764Z,28.80
2018-04-29T03:46:51.245Z,23.40
2018-04-29T03:49:18.745Z,21.47
2018-04-29T03:51:46.223Z,19.03
2018-04-29T03:54:13.747Z,18.80
2018-04-29T03:56:41.971Z,26.53
2018-04-29T03:59:21.243Z,25.00
2018-04-29T04:02:00.536Z,20.57
2018-04-29T04:04:28.041Z,21.63
2018-04-29T04:06:55.535Z,26.03
2018-04-29T04:09:23.053Z,27.90
2018-04-29T04:11:50.535Z,26.83
2018-04-29T04:14:18.783Z,24.20
2018-04-29T04:16:46.288Z,21.63
2018-04-29T04:19:13.779Z,22.60
2018-04-29T04:21:41.282Z,20.17
2018-04-29T04:24:09.531Z,21.57
2018-04-29T04:26:37.029Z,16.47
2018-04-29T04:29:04.519Z,15.87
2018-04-29T04:31:32.026Z,18.20
2018-04-29T04:34:00.272Z,17.47
2018-04-29T04:36:27.791Z,19.97
2018-04-29T04:38:55.290Z,22.07
2018-04-29T04:41:22.814Z,27.93
2018-04-29T04:43:50.296Z,16.03
2018-04-29T04:46:17.822Z,19.13
2018-04-29T04:48:45.306Z,20.47
2018-04-29T04:51:12.780Z,26.27
2018-04-29T04:53:40.380Z,21.13
2018-04-29T04:56:09.645Z,18.57
2018-04-29T04:58:37.162Z,17.37
2018-04-29T05:01:04.696Z,19.17
2018-04-29T05:03:32.971Z,19.17
2018-04-29T05:06:01.219Z,18.83
2018-04-29T05:08:29.513Z,20.23
2018-04-29T05:10:57.775Z,17.87
2018-04-29T05:13:25.284Z,22.00
2018-04-29T05:15:52.782Z,14.77
2018-04-29T05:18:20.291Z,24.10
2018-04-29T05:20:47.789Z,20.37
2018-04-29T05:23:15.294Z,18.83
2018-04-29T05:25:42.787Z,22.43
2018-04-29T05:28:10.305Z,21.03
2018-04-29T05:30:38.586Z,28.13
2018-04-29T05:33:06.167Z,17.03
2018-04-29T05:35:33.667Z,14.83
2018-04-29T05:38:01.143Z,14.27
2018-04-29T05:40:29.413Z,11.43
2018-04-29T05:42:56.913Z,10.97
2018-04-29T05:45:24.431Z,15.40
2018-04-29T05:47:51.951Z,16.57
2018-04-29T05:50:19.471Z,21.30
2018-04-29T05:52:47.763Z,30.03
2018-04-29T05:55:15.266Z,13.17
2018-04-29T05:57:42.754Z,14.47
2018-04-29T06:00:11.040Z,14.23
2018-04-29T06:02:39.295Z,13.57
2018-04-29T06:05:07.586Z,14.00
2018-04-29T06:07:35.822Z,13.67
2018-04-29T06:10:04.126Z,31.40
2018-04-29T06:12:31.618Z,15.40
2018-04-29T06:14:59.135Z,13.37
2018-04-29T06:17:26.647Z,14.30
2018-04-29T06:19:55.023Z,18.20
2018-04-29T06:22:22.494Z,14.57
2018-04-29T06:24:50.005Z,11.67
2018-04-29T06:27:18.262Z,14.10
2018-04-29T06:29:45.773Z,11.03
2018-04-29T06:32:13.269Z,9.73
2018-04-29T06:34:40.796Z,11.37
2018-04-29T06:37:08.297Z,11.97
2018-04-29T06:39:35.805Z,8.87
2018-04-29T06:42:03.327Z,9.07
2018-04-29T06:44:31.585Z,9.00
2018-04-29T06:46:59.102Z,10.13
2018-04-29T06:49:26.612Z,8.57
2018-04-29T06:51:54.915Z,7.67
2018-04-29T06:54:23.161Z,7.47
2018-04-29T06:56:50.707Z,7.87
2018-04-29T06:59:18.189Z,7.80
2018-04-29T07:01:46.465Z,8.47
2018-04-29T07:04:14.752Z,7.37
2018-04-29T07:06:42.277Z,5.57
2018-04-29T07:09:09.759Z,7.73
2018-04-29T07:11:38.049Z,7.30
2018-04-29T07:14:06.328Z,7.00
2018-04-29T07:16:35.328Z,7.13
2018-04-29T07:19:02.831Z,6.67
2018-04-29T07:21:30.325Z,5.77
2018-04-29T07:23:58.617Z,6.60
2018-04-29T07:26:26.147Z,5.60
2018-04-29T07:28:54.435Z,5.00
2018-04-29T07:31:22.733Z,5.40
2018-04-29T07:33:50.265Z,5.23
2018-04-29T07:36:18.512Z,5.33
2018-04-29T07:38:46.020Z,5.27
2018-04-29T07:41:13.500Z,5.87
2018-04-29T07:43:41.045Z,4.80
2018-04-29T07:46:08.539Z,4.60
2018-04-29T07:48:36.063Z,4.10
2018-04-29T07:51:03.534Z,5.20
2018-04-29T07:53:31.039Z,5.20
2018-04-29T07:55:58.506Z,5.00
2018-04-29T07:58:26.795Z,4.37
2018-04-29T08:00:55.030Z,5.07
2018-04-29T08:03:22.487Z,5.07
2018-04-29T08:05:49.988Z,5.30
2018-04-29T08:08:18.251Z,5.13
2018-04-29T08:10:46.534Z,4.67
2018-04-29T08:13:14.886Z,4.10
2018-04-29T08:15:42.495Z,4.03
2018-04-29T08:18:09.977Z,4.05
2018-04-29T08:20:37.484Z,4.20
2018-04-29T08:23:05.736Z,4.22
2018-04-29T08:25:33.247Z,4.32
2018-04-29T08:28:00.726Z,4.40
2018-04-29T08:30:28.244Z,3.92
2018-04-29T08:32:55.758Z,3.58
2018-04-29T08:35:23.270Z,4.22
2018-04-29T08:37:50.770Z,3.70
2018-04-29T08:40:18.305Z,3.85
2018-04-29T08:42:45.790Z,3.90
2018-04-29T08:45:13.315Z,3.85
2018-04-29T08:47:40.801Z,4.60
2018-04-29T08:50:08.342Z,3.53
2018-04-29T08:52:35.824Z,4.10
2018-04-29T08:55:03.348Z,3.80
2018-04-29T08:57:30.839Z,3.60
2018-04-29T08:59:58.341Z,3.95
2018-04-29T09:02:26.619Z,3.75
2018-04-29T09:04:54.118Z,3.45
2018-04-29T09:07:21.635Z,3.50
2018-04-29T09:09:49.114Z,3.20
2018-04-29T09:12:16.670Z,3.87
2018-04-29T09:14:44.155Z,3.25
2018-04-29T09:17:12.829Z,4.00
2018-04-29T09:19:40.307Z,3.45
2018-04-29T09:22:07.835Z,3.87
2018-04-29T09:24:35.355Z,3.60
2018-04-29T09:27:02.907Z,3.75
2018-04-29T09:29:30.617Z,3.90
2018-04-29T09:31:58.119Z,3.78
2018-04-29T09:34:25.605Z,4.10
2018-04-29T09:36:53.941Z,3.15
2018-04-29T09:39:22.163Z,3.05
2018-04-29T09:41:49.693Z,3.20
2018-04-29T09:44:17.235Z,3.90
2018-04-29T09:46:44.707Z,3.55
2018-04-29T09:49:12.221Z,3.92
2018-04-29T09:51:39.700Z,3.78
2018-04-29T09:54:07.211Z,2.87
2018-04-29T09:56:34.706Z,4.18
2018-04-29T09:59:02.227Z,3.40
2018-04-29T10:01:35.668Z,3.33
2018-04-29T10:04:03.199Z,3.45
2018-04-29T10:06:30.684Z,3.08
2018-04-29T10:08:58.252Z,3.83
2018-04-29T10:11:25.742Z,3.60
2018-04-29T10:13:54.020Z,3.78
2018-04-29T10:16:22.261Z,3.45
2018-04-29T10:18:49.775Z,3.42
2018-04-29T10:21:18.035Z,3.50
2018-04-29T10:23:46.353Z,3.90
2018-04-29T10:26:13.874Z,3.65
2018-04-29T10:28:42.120Z,3.33
2018-04-29T10:31:10.436Z,3.20
2018-04-29T10:33:37.928Z,3.50
2018-04-29T10:36:05.427Z,4.03
2018-04-29T10:38:33.690Z,3.50
2018-04-29T10:41:01.292Z,3.80
2018-04-29T10:43:28.728Z,3.22
2018-04-29T10:45:57.025Z,3.58
2018-04-29T10:48:24.529Z,3.87
2018-04-29T10:50:52.609Z,3.67
2018-04-29T10:53:20.091Z,3.28
2018-04-29T10:55:48.362Z,3.90
2018-04-29T10:58:15.885Z,3.80
2018-04-29T11:00:43.496Z,3.95
2018-04-29T11:03:11.760Z,3.40
2018-04-29T11:05:40.021Z,3.60
2018-04-29T11:08:07.517Z,4.28
2018-04-29T11:10:35.039Z,4.20
2018-04-29T11:13:02.615Z,3.67
2018-04-29T11:15:30.899Z,4.43
2018-04-29T11:17:59.176Z,4.55
2018-04-29T11:20:26.712Z,4.57
2018-04-29T11:22:54.188Z,4.25
2018-04-29T11:25:22.463Z,3.67
2018-04-29T11:27:50.733Z,3.80
2018-04-29T11:30:18.268Z,4.07
2018-04-29T11:32:45.767Z,4.62
2018-04-29T11:35:14.031Z,4.37
2018-04-29T11:37:41.565Z,4.20
2018-04-29T11:40:09.060Z,4.30
2018-04-29T11:42:36.589Z,4.45
2018-04-29T11:45:04.062Z,3.92
2018-04-29T11:47:32.354Z,4.00
2018-04-29T11:50:00.588Z,3.78
2018-04-29T11:52:28.248Z,4.35
2018-04-29T11:54:55.724Z,3.67
2018-04-29T11:57:23.263Z,3.60
2018-04-29T11:59:50.752Z,3.58
2018-04-29T12:02:19.024Z,3.42
2018-04-29T12:04:46.508Z,3.47
2018-04-29T12:07:14.047Z,3.40
2018-04-29T12:09:42.298Z,3.80
2018-04-29T12:12:09.781Z,3.92
2018-04-29T12:14:37.316Z,3.35
2018-04-29T12:17:04.824Z,3.50
2018-04-29T12:19:32.349Z,3.20
2018-04-29T12:22:00.627Z,3.30
2018-04-29T12:24:28.956Z,3.15
2018-04-29T12:26:56.411Z,3.05
2018-04-29T12:29:23.944Z,3.40
2018-04-29T12:31:51.441Z,3.67
2018-04-29T12:34:18.995Z,3.60
2018-04-29T12:36:46.483Z,3.37
2018-04-29T12:39:13.993Z,3.08
2018-04-29T12:41:41.491Z,3.55
2018-04-29T12:44:09.013Z,3.50
2018-04-29T12:46:36.521Z,3.78
2018-04-29T12:49:04.053Z,3.20
2018-04-29T12:51:31.551Z,4.40
2018-04-29T12:53:59.803Z,3.30
2018-04-29T12:56:27.306Z,3.47
2018-04-29T12:58:54.815Z,3.80
2018-04-29T13:01:22.324Z,4.43
2018-04-29T13:03:49.807Z,3.37
2018-04-29T13:06:18.244Z,4.35
2018-04-29T13:08:46.919Z,3.62
2018-04-29T13:11:15.208Z,3.90
2018-04-29T13:13:43.461Z,3.53
2018-04-29T13:16:10.986Z,3.85
2018-04-29T13:18:38.483Z,3.72
2018-04-29T13:21:06.000Z,3.42
2018-04-29T13:23:33.498Z,3.42
2018-04-29T13:26:00.974Z,3.80
2018-04-29T13:28:29.239Z,3.60
2018-04-29T13:30:57.474Z,3.30
2018-04-29T13:33:24.983Z,3.30
2018-04-29T13:35:53.222Z,3.15
2018-04-29T13:38:20.757Z,3.58
2018-04-29T13:40:48.228Z,2.92
2018-04-29T13:43:15.732Z,3.10
2018-04-29T13:45:43.265Z,2.87
2018-04-29T13:48:10.791Z,3.22
2018-04-29T13:50:38.286Z,3.87
2018-04-29T13:53:05.805Z,3.50
2018-04-29T13:55:33.296Z,3.30
2018-04-29T13:58:00.807Z,4.03
2018-04-29T14:00:28.315Z,3.50
2018-04-29T14:02:55.845Z,3.42
2018-04-29T14:05:23.381Z,3.28
2018-04-29T14:07:50.902Z,3.42
2018-04-29T14:10:18.500Z,3.62
2018-04-29T14:12:45.925Z,4.37
2018-04-29T14:15:15.670Z,3.33
2018-04-29T14:17:43.151Z,3.65
2018-04-29T14:20:11.499Z,3.17
2018-04-29T14:22:38.972Z,3.78
2018-04-29T14:25:06.516Z,3.50
2018-04-29T14:27:34.020Z,2.75
2018-04-29T14:30:01.508Z,3.10
2018-04-29T14:32:29.781Z,3.45
2018-04-29T14:34:58.168Z,3.67
2018-04-29T14:37:26.405Z,3.28
2018-04-29T14:39:53.919Z,3.15
2018-04-29T14:42:21.451Z,3.22
2018-04-29T14:44:49.717Z,3.17
2018-04-29T14:47:17.226Z,3.20
2018-04-29T14:49:44.716Z,3.80
2018-04-29T14:52:13.342Z,8.02
2018-04-29T14:54:41.283Z,4.10
2018-04-29T14:57:08.825Z,3.35
2018-04-29T14:59:36.327Z,3.33
2018-04-29T15:02:03.895Z,3.30
2018-04-29T15:04:31.455Z,2.65
2018-04-29T15:06:58.955Z,3.60
2018-04-29T15:09:26.443Z,3.08
2018-04-29T15:11:54.727Z,3.03
2018-04-29T15:14:23.064Z,3.28
2018-04-29T15:16:50.569Z,3.10
2018-04-29T15:19:18.825Z,3.40
2018-04-29T15:21:47.117Z,3.37
2018-04-29T15:24:15.416Z,3.45
2018-04-29T15:26:42.897Z,3.50
2018-04-29T15:29:10.427Z,2.83
2018-04-29T15:31:37.908Z,3.85
2018-04-29T15:34:05.418Z,4.00
2018-04-29T15:36:33.687Z,3.80
2018-04-29T15:39:01.209Z,3.62
2018-04-29T15:41:28.729Z,3.42
2018-04-29T15:43:56.229Z,3.90
2018-04-29T15:46:23.742Z,3.35
2018-04-29T15:48:52.021Z,3.37
2018-04-29T15:51:20.331Z,3.30
2018-04-29T15:53:47.860Z,3.40
2018-04-29T15:56:15.356Z,3.97
2018-04-29T15:58:42.861Z,5.68
2018-04-29T16:01:11.128Z,3.50
2018-04-29T16:03:38.625Z,3.10
2018-04-29T16:06:06.148Z,3.37
2018-04-29T16:08:34.422Z,4.28
2018-04-29T16:11:01.917Z,4.10
2018-04-29T16:13:29.406Z,5.53
2018-04-29T16:15:56.909Z,4.18
2018-04-29T16:18:24.414Z,3.30
2018-04-29T16:20:52.668Z,3.35
2018-04-29T16:23:20.176Z,3.42
2018-04-29T16:25:47.683Z,3.85
2018-04-29T16:28:15.221Z,4.32
2018-04-29T16:30:43.520Z,3.42
2018-04-29T16:33:11.052Z,3.85
2018-04-29T16:35:38.553Z,4.50
2018-04-29T16:38:06.159Z,3.50
2018-04-29T16:40:34.350Z,3.55
2018-04-29T16:43:02.666Z,3.65
2018-04-29T16:45:30.145Z,3.42
2018-04-29T16:47:57.660Z,2.95
2018-04-29T16:50:25.137Z,3.40
2018-04-29T16:52:52.653Z,7.87
2018-04-29T16:55:20.915Z,3.75
2018-04-29T16:57:48.436Z,3.30
2018-04-29T17:00:15.919Z,3.60
2018-04-29T17:02:43.437Z,4.22
2018-04-29T17:05:11.681Z,5.90
2018-04-29T17:07:39.963Z,4.70
2018-04-29T17:10:08.259Z,6.07
2018-04-29T17:12:35.771Z,5.27
2018-04-29T17:15:03.453Z,4.30
2018-04-29T17:17:31.738Z,4.03
2018-04-29T17:19:59.229Z,3.83
2018-04-29T17:22:26.730Z,4.00
2018-04-29T17:24:55.158Z,4.00
2018-04-29T17:27:22.696Z,4.73
2018-04-29T17:29:50.175Z,4.40
2018-04-29T17:32:17.665Z,4.40
2018-04-29T17:34:45.191Z,4.83
2018-04-29T17:37:12.672Z,4.40
2018-04-29T17:39:40.202Z,4.70
2018-04-29T17:42:07.704Z,4.20
2018-04-29T17:44:35.228Z,4.80
2018-04-29T17:47:02.731Z,4.27
2018-04-29T17:49:30.308Z,4.93
2018-04-29T17:51:58.546Z,8.13
2018-04-29T17:54:26.173Z,5.03
2018-04-29T17:56:53.644Z,5.60
2018-04-29T17:59:21.290Z,7.07
2018-04-29T18:01:48.783Z,6.03
2018-04-29T18:04:16.297Z,4.77
2018-04-29T18:06:48.453Z,4.90
2018-04-29T18:09:15.992Z,4.37
2018-04-29T18:11:43.495Z,5.77
2018-04-29T18:14:11.002Z,5.67
2018-04-29T18:16:39.251Z,5.30
2018-04-29T18:19:06.736Z,4.60
2018-04-29T18:21:34.236Z,4.43
2018-04-29T18:24:01.805Z,4.63
2018-04-29T18:26:31.316Z,4.63
2018-04-29T18:28:58.826Z,4.80
2018-04-29T18:31:27.158Z,4.70
2018-04-29T18:33:54.643Z,4.93
2018-04-29T18:36:22.155Z,4.93
2018-04-29T18:38:49.640Z,4.57
2018-04-29T18:41:17.172Z,5.10
2018-04-29T18:43:44.688Z,4.97
2018-04-29T18:46:12.186Z,5.23
2018-04-29T18:48:39.703Z,5.13
2018-04-29T18:51:07.415Z,5.47
2018-04-29T18:53:34.706Z,5.43
2018-04-29T18:56:02.492Z,5.13
2018-04-29T18:58:30.094Z,5.83
2018-04-29T19:00:57.621Z,5.60
2018-04-29T19:03:25.889Z,6.17
2018-04-29T19:05:59.456Z,6.53
2018-04-29T19:08:26.969Z,7.00
2018-04-29T19:10:54.455Z,6.33
2018-04-29T19:13:22.008Z,6.57
2018-04-29T19:15:49.496Z,8.83
2018-04-29T19:18:17.037Z,5.70
2018-04-29T19:20:44.529Z,5.83
2018-04-29T19:23:12.059Z,5.90
2018-04-29T19:25:39.532Z,6.03
2018-04-29T19:28:07.067Z,6.30
2018-04-29T19:30:34.564Z,7.27
2018-04-29T19:33:02.084Z,6.93
2018-04-29T19:35:29.571Z,7.33
2018-04-29T19:37:57.092Z,7.23
2018-04-29T19:40:24.579Z,7.10
2018-04-29T19:42:52.121Z,6.87
2018-04-29T19:45:19.655Z,6.53
2018-04-29T19:47:47.180Z,6.57
2018-04-29T19:50:15.459Z,6.47
2018-04-29T19:52:43.770Z,7.00
2018-04-29T19:55:11.357Z,7.37
2018-04-29T19:57:38.819Z,6.37
2018-04-29T20:00:06.430Z,4.87
2018-04-29T20:02:34.703Z,4.20
2018-04-29T20:05:02.984Z,5.00
2018-04-29T20:07:30.480Z,5.83
2018-04-29T20:09:58.769Z,6.40
2018-04-29T20:12:26.274Z,5.37
2018-04-29T20:14:54.532Z,4.07
2018-04-29T20:17:22.103Z,2.67
2018-04-29T20:19:50.398Z,2.43
2018-04-29T20:22:17.886Z,2.60
2018-04-29T20:24:45.395Z,3.17
2018-04-29T20:27:13.643Z,3.80
2018-04-29T20:29:41.152Z,2.47
2018-04-29T20:32:08.631Z,2.80
2018-04-29T20:34:36.131Z,3.00
2018-04-29T20:37:03.613Z,3.03
2018-04-29T20:39:31.870Z,3.10
2018-04-29T20:42:00.150Z,2.70
2018-04-29T20:44:27.642Z,2.67
2018-04-29T20:46:55.166Z,2.70
2018-04-29T20:49:23.411Z,2.63
2018-04-29T20:51:50.938Z,3.20
2018-04-29T20:54:18.418Z,4.70
2018-04-29T20:56:46.727Z,2.93
2018-04-29T20:59:15.314Z,3.00
2018-04-29T21:01:43.911Z,3.20
2018-04-29T21:04:12.173Z,3.50
2018-04-29T21:06:40.443Z,3.20
2018-04-29T21:09:09.017Z,3.30
2018-04-29T21:11:36.514Z,2.70
2018-04-29T21:14:03.992Z,2.63
2018-04-29T21:16:31.473Z,2.70
2018-04-29T21:18:58.979Z,3.00
2018-04-29T21:21:27.215Z,3.17
2018-04-29T21:23:54.755Z,2.90
2018-04-29T21:26:22.486Z,4.50
2018-04-29T21:28:50.023Z,5.30
2018-04-29T21:31:17.568Z,3.17
2018-04-29T21:33:45.110Z,3.33
2018-04-29T21:36:12.582Z,3.73
2018-04-29T21:38:40.101Z,4.03
2018-04-29T21:41:07.569Z,3.43
2018-04-29T21:43:35.092Z,3.70
2018-04-29T21:46:02.560Z,3.73
2018-04-29T21:48:30.070Z,5.43
2018-04-29T21:50:57.557Z,10.47
2018-04-29T21:53:25.826Z,8.67
2018-04-29T21:55:54.093Z,10.30
2018-04-29T21:58:22.393Z,9.37
2018-04-29T22:00:49.910Z,10.40
2018-04-29T22:03:17.429Z,11.70
2018-04-29T22:05:44.940Z,11.30
2018-04-29T22:08:12.436Z,12.57
2018-04-29T22:10:39.967Z,12.60
2018-04-29T22:13:08.216Z,14.67
2018-04-29T22:15:35.758Z,14.07
2018-04-29T22:18:04.052Z,16.07
2018-04-29T22:20:31.554Z,16.70
2018-04-29T22:22:59.066Z,14.37
2018-04-29T22:25:26.582Z,14.87
2018-04-29T22:27:54.067Z,14.10
2018-04-29T22:30:21.590Z,14.93
2018-04-29T22:32:49.117Z,9.83
2018-04-29T22:35:16.646Z,6.50
2018-04-29T22:37:44.328Z,4.53
2018-04-29T22:40:11.862Z,3.67
2018-04-29T22:42:39.351Z,3.60
2018-04-29T22:45:06.868Z,3.87
2018-04-29T22:47:34.694Z,2.73
2018-04-29T22:50:02.956Z,2.63
2018-04-29T22:52:30.499Z,2.70
2018-04-29T22:54:58.024Z,3.10
2018-04-29T22:57:25.541Z,2.57
2018-04-29T22:59:53.045Z,3.30
2018-04-29T23:02:20.549Z,3.17
2018-04-29T23:04:48.079Z,3.30
2018-04-29T23:07:15.579Z,3.87
2018-04-29T23:09:43.864Z,3.47
2018-04-29T23:12:12.117Z,3.13
2018-04-29T23:14:39.621Z,3.50
2018-04-29T23:17:07.131Z,2.77
2018-04-29T23:19:34.653Z,2.73
2018-04-29T23:22:02.149Z,3.30
2018-04-29T23:24:29.653Z,3.40
2018-04-29T23:26:57.135Z,3.80
2018-04-29T23:29:24.660Z,2.93
2018-04-29T23:31:52.146Z,3.53
2018-04-29T23:34:19.669Z,2.87
2018-04-29T23:36:47.165Z,3.30
2018-04-29T23:39:14.665Z,2.97
2018-04-29T23:41:42.925Z,3.33
2018-04-29T23:44:10.409Z,3.33
2018-04-29T23:46:38.723Z,3.30
2018-04-29T23:49:06.211Z,3.20
2018-04-29T23:51:33.754Z,3.30
2018-04-29T23:54:01.239Z,2.90
2018-04-29T23:56:28.765Z,2.80
2018-04-29T23:58:56.244Z,3.13
